sensor_id;sensor_type;location;lat;lon;timestamp;P1;durP1;ratioP1;P2;durP2;ratioP2
4248;SDS011;8404;48.752;12.922;2022-10-16T00:00:58;4.28;;;3.85;;
4248;SDS011;8404;48.752;12.922;2022-10-16T00:03:31;4.50;;;3.78;;
4248;SDS011;8404;48.752;12.922;2022-10-16T00:06:00;3.95;;;3.40;;
4248;SDS011;8404;48.752;12.922;2022-10-16T00:08:29;4.32;;;3.25;;
4248;SDS011;8404;48.752;12.922;2022-10-16T00:11:03;4.85;;;3.20;;
4248;SDS011;8404;48.752;12.922;2022-10-16T00:13:33;3.85;;;3.20;;
4248;SDS011;8404;48.752;12.922;2022-10-16T00:16:03;6.40;;;3.25;;
4248;SDS011;8404;48.752;12.922;2022-10-16T00:18:31;4.07;;;3.13;;
4248;SDS011;8404;48.752;12.922;2022-10-16T00:21:03;4.90;;;3.80;;
4248;SDS011;8404;48.752;12.922;2022-10-16T00:23:33;3.60;;;2.90;;
4248;SDS011;8404;48.752;12.922;2022-10-16T00:26:04;5.13;;;3.58;;
4248;SDS011;8404;48.752;12.922;2022-10-16T00:28:34;3.60;;;3.05;;
4248;SDS011;8404;48.752;12.922;2022-10-16T00:31:03;4.00;;;3.00;;
4248;SDS011;8404;48.752;12.922;2022-10-16T00:33:31;3.90;;;2.80;;
4248;SDS011;8404;48.752;12.922;2022-10-16T00:36:00;4.25;;;3.35;;
4248;SDS011;8404;48.752;12.922;2022-10-16T00:38:30;4.55;;;3.50;;
4248;SDS011;8404;48.752;12.922;2022-10-16T00:40:58;6.47;;;3.55;;
4248;SDS011;8404;48.752;12.922;2022-10-16T00:43:35;3.42;;;2.83;;
4248;SDS011;8404;48.752;12.922;2022-10-16T00:46:09;4.30;;;3.45;;
4248;SDS011;8404;48.752;12.922;2022-10-16T00:51:12;5.32;;;3.33;;
4248;SDS011;8404;48.752;12.922;2022-10-16T00:53:41;4.28;;;3.65;;
4248;SDS011;8404;48.752;12.922;2022-10-16T00:56:10;3.72;;;3.03;;
4248;SDS011;8404;48.752;12.922;2022-10-16T00:58:39;3.75;;;3.10;;
4248;SDS011;8404;48.752;12.922;2022-10-16T01:01:08;4.78;;;3.53;;
4248;SDS011;8404;48.752;12.922;2022-10-16T01:03:36;5.57;;;4.07;;
4248;SDS011;8404;48.752;12.922;2022-10-16T01:06:08;4.53;;;3.58;;
4248;SDS011;8404;48.752;12.922;2022-10-16T01:08:47;4.57;;;3.78;;
4248;SDS011;8404;48.752;12.922;2022-10-16T01:11:24;6.38;;;3.90;;
4248;SDS011;8404;48.752;12.922;2022-10-16T01:14:03;4.43;;;3.45;;
4248;SDS011;8404;48.752;12.922;2022-10-16T01:16:37;5.63;;;3.75;;
4248;SDS011;8404;48.752;12.922;2022-10-16T01:19:12;6.53;;;3.80;;
4248;SDS011;8404;48.752;12.922;2022-10-16T01:21:46;4.05;;;3.65;;
4248;SDS011;8404;48.752;12.922;2022-10-16T01:24:22;5.43;;;3.80;;
4248;SDS011;8404;48.752;12.922;2022-10-16T01:27:11;3.90;;;3.50;;
4248;SDS011;8404;48.752;12.922;2022-10-16T01:29:44;4.47;;;3.40;;
4248;SDS011;8404;48.752;12.922;2022-10-16T01:32:27;5.82;;;3.85;;
4248;SDS011;8404;48.752;12.922;2022-10-16T01:35:03;4.70;;;3.47;;
4248;SDS011;8404;48.752;12.922;2022-10-16T01:37:38;4.70;;;3.35;;
4248;SDS011;8404;48.752;12.922;2022-10-16T01:40:14;4.70;;;4.20;;
4248;SDS011;8404;48.752;12.922;2022-10-16T01:42:47;5.43;;;3.88;;
4248;SDS011;8404;48.752;12.922;2022-10-16T01:45:19;5.60;;;4.38;;
4248;SDS011;8404;48.752;12.922;2022-10-16T01:47:49;5.32;;;4.20;;
4248;SDS011;8404;48.752;12.922;2022-10-16T01:50:19;4.82;;;3.85;;
4248;SDS011;8404;48.752;12.922;2022-10-16T01:52:49;4.47;;;3.65;;
4248;SDS011;8404;48.752;12.922;2022-10-16T01:55:22;6.35;;;3.95;;
4248;SDS011;8404;48.752;12.922;2022-10-16T01:57:54;4.50;;;3.55;;
4248;SDS011;8404;48.752;12.922;2022-10-16T02:00:24;5.80;;;3.45;;
4248;SDS011;8404;48.752;12.922;2022-10-16T02:02:53;4.32;;;3.50;;
4248;SDS011;8404;48.752;12.922;2022-10-16T02:05:25;4.88;;;3.75;;
4248;SDS011;8404;48.752;12.922;2022-10-16T02:07:56;4.82;;;3.55;;
4248;SDS011;8404;48.752;12.922;2022-10-16T02:10:28;4.82;;;3.40;;
4248;SDS011;8404;48.752;12.922;2022-10-16T02:13:00;5.88;;;3.72;;
4248;SDS011;8404;48.752;12.922;2022-10-16T02:15:36;5.80;;;4.20;;
4248;SDS011;8404;48.752;12.922;2022-10-16T02:18:04;5.50;;;4.07;;
4248;SDS011;8404;48.752;12.922;2022-10-16T02:20:35;6.25;;;3.88;;
4248;SDS011;8404;48.752;12.922;2022-10-16T02:25:40;6.57;;;4.25;;
4248;SDS011;8404;48.752;12.922;2022-10-16T02:28:14;6.38;;;3.95;;
4248;SDS011;8404;48.752;12.922;2022-10-16T02:30:46;5.60;;;3.58;;
4248;SDS011;8404;48.752;12.922;2022-10-16T02:33:18;4.50;;;3.45;;
4248;SDS011;8404;48.752;12.922;2022-10-16T02:35:49;5.32;;;3.55;;
4248;SDS011;8404;48.752;12.922;2022-10-16T02:38:18;5.93;;;3.38;;
4248;SDS011;8404;48.752;12.922;2022-10-16T02:40:48;4.63;;;4.10;;
4248;SDS011;8404;48.752;12.922;2022-10-16T02:43:18;4.32;;;3.83;;
4248;SDS011;8404;48.752;12.922;2022-10-16T02:45:46;7.00;;;4.53;;
4248;SDS011;8404;48.752;12.922;2022-10-16T02:48:18;4.65;;;3.67;;
4248;SDS011;8404;48.752;12.922;2022-10-16T02:50:46;5.80;;;4.65;;
4248;SDS011;8404;48.752;12.922;2022-10-16T02:53:14;5.85;;;4.05;;
4248;SDS011;8404;48.752;12.922;2022-10-16T02:55:42;7.00;;;4.43;;
4248;SDS011;8404;48.752;12.922;2022-10-16T02:58:10;6.15;;;4.72;;
4248;SDS011;8404;48.752;12.922;2022-10-16T03:00:39;6.10;;;4.57;;
4248;SDS011;8404;48.752;12.922;2022-10-16T03:03:08;6.63;;;4.80;;
4248;SDS011;8404;48.752;12.922;2022-10-16T03:05:37;8.80;;;4.22;;
4248;SDS011;8404;48.752;12.922;2022-10-16T03:08:05;5.53;;;4.25;;
4248;SDS011;8404;48.752;12.922;2022-10-16T03:10:33;5.57;;;4.60;;
4248;SDS011;8404;48.752;12.922;2022-10-16T03:13:01;4.80;;;3.80;;
4248;SDS011;8404;48.752;12.922;2022-10-16T03:15:30;5.35;;;3.85;;
4248;SDS011;8404;48.752;12.922;2022-10-16T03:17:59;4.75;;;3.85;;
4248;SDS011;8404;48.752;12.922;2022-10-16T03:20:28;4.53;;;3.90;;
4248;SDS011;8404;48.752;12.922;2022-10-16T03:22:56;5.95;;;5.03;;
4248;SDS011;8404;48.752;12.922;2022-10-16T03:25:24;6.40;;;4.78;;
4248;SDS011;8404;48.752;12.922;2022-10-16T03:27:52;5.13;;;3.80;;
4248;SDS011;8404;48.752;12.922;2022-10-16T03:30:20;5.30;;;3.70;;
4248;SDS011;8404;48.752;12.922;2022-10-16T03:32:48;4.07;;;3.38;;
4248;SDS011;8404;48.752;12.922;2022-10-16T03:35:21;3.92;;;3.50;;
4248;SDS011;8404;48.752;12.922;2022-10-16T03:37:50;6.15;;;3.90;;
4248;SDS011;8404;48.752;12.922;2022-10-16T03:40:19;5.15;;;3.85;;
4248;SDS011;8404;48.752;12.922;2022-10-16T03:42:47;5.75;;;4.75;;
4248;SDS011;8404;48.752;12.922;2022-10-16T03:45:15;5.63;;;4.40;;
4248;SDS011;8404;48.752;12.922;2022-10-16T03:47:43;5.90;;;4.65;;
4248;SDS011;8404;48.752;12.922;2022-10-16T03:50:11;7.00;;;4.30;;
4248;SDS011;8404;48.752;12.922;2022-10-16T03:52:41;6.35;;;4.93;;
4248;SDS011;8404;48.752;12.922;2022-10-16T03:55:09;6.13;;;5.05;;
4248;SDS011;8404;48.752;12.922;2022-10-16T03:57:37;5.60;;;4.55;;
4248;SDS011;8404;48.752;12.922;2022-10-16T04:00:07;5.47;;;4.55;;
4248;SDS011;8404;48.752;12.922;2022-10-16T04:02:38;4.53;;;4.05;;
4248;SDS011;8404;48.752;12.922;2022-10-16T04:05:07;5.65;;;4.70;;
4248;SDS011;8404;48.752;12.922;2022-10-16T04:07:35;5.05;;;4.10;;
4248;SDS011;8404;48.752;12.922;2022-10-16T04:10:05;6.63;;;5.97;;
4248;SDS011;8404;48.752;12.922;2022-10-16T04:12:34;6.28;;;5.13;;
4248;SDS011;8404;48.752;12.922;2022-10-16T04:15:02;6.13;;;4.68;;
4248;SDS011;8404;48.752;12.922;2022-10-16T04:17:30;4.93;;;4.03;;
4248;SDS011;8404;48.752;12.922;2022-10-16T04:19:58;8.02;;;5.53;;
4248;SDS011;8404;48.752;12.922;2022-10-16T04:22:27;5.25;;;4.50;;
4248;SDS011;8404;48.752;12.922;2022-10-16T04:24:55;5.10;;;4.20;;
4248;SDS011;8404;48.752;12.922;2022-10-16T04:27:24;6.00;;;4.63;;
4248;SDS011;8404;48.752;12.922;2022-10-16T04:29:53;6.90;;;4.80;;
4248;SDS011;8404;48.752;12.922;2022-10-16T04:32:21;5.75;;;4.95;;
4248;SDS011;8404;48.752;12.922;2022-10-16T04:34:49;6.18;;;5.05;;
4248;SDS011;8404;48.752;12.922;2022-10-16T04:37:17;6.05;;;4.60;;
4248;SDS011;8404;48.752;12.922;2022-10-16T04:39:45;6.93;;;5.28;;
4248;SDS011;8404;48.752;12.922;2022-10-16T04:42:14;5.50;;;4.72;;
4248;SDS011;8404;48.752;12.922;2022-10-16T04:44:43;6.38;;;4.90;;
4248;SDS011;8404;48.752;12.922;2022-10-16T04:47:11;4.90;;;3.97;;
4248;SDS011;8404;48.752;12.922;2022-10-16T04:49:40;5.28;;;4.30;;
4248;SDS011;8404;48.752;12.922;2022-10-16T04:52:08;3.95;;;3.45;;
4248;SDS011;8404;48.752;12.922;2022-10-16T04:54:36;4.28;;;3.70;;
4248;SDS011;8404;48.752;12.922;2022-10-16T04:57:04;5.90;;;3.92;;
4248;SDS011;8404;48.752;12.922;2022-10-16T04:59:32;4.95;;;4.25;;
4248;SDS011;8404;48.752;12.922;2022-10-16T05:02:02;5.50;;;3.45;;
4248;SDS011;8404;48.752;12.922;2022-10-16T05:04:30;6.70;;;4.90;;
4248;SDS011;8404;48.752;12.922;2022-10-16T05:06:58;5.90;;;5.00;;
4248;SDS011;8404;48.752;12.922;2022-10-16T05:09:27;6.13;;;4.80;;
4248;SDS011;8404;48.752;12.922;2022-10-16T05:11:55;5.45;;;4.55;;
4248;SDS011;8404;48.752;12.922;2022-10-16T05:14:23;5.50;;;4.32;;
4248;SDS011;8404;48.752;12.922;2022-10-16T05:16:51;4.90;;;4.25;;
4248;SDS011;8404;48.752;12.922;2022-10-16T05:19:21;4.65;;;4.07;;
4248;SDS011;8404;48.752;12.922;2022-10-16T05:21:54;3.97;;;3.58;;
4248;SDS011;8404;48.752;12.922;2022-10-16T05:24:22;5.45;;;4.10;;
4248;SDS011;8404;48.752;12.922;2022-10-16T05:26:50;4.93;;;3.90;;
4248;SDS011;8404;48.752;12.922;2022-10-16T05:29:18;5.25;;;4.15;;
4248;SDS011;8404;48.752;12.922;2022-10-16T05:31:49;5.93;;;4.43;;
4248;SDS011;8404;48.752;12.922;2022-10-16T05:34:18;4.70;;;3.80;;
4248;SDS011;8404;48.752;12.922;2022-10-16T05:36:48;6.28;;;4.72;;
4248;SDS011;8404;48.752;12.922;2022-10-16T05:39:16;6.00;;;4.57;;
4248;SDS011;8404;48.752;12.922;2022-10-16T05:41:44;6.63;;;4.65;;
4248;SDS011;8404;48.752;12.922;2022-10-16T05:44:12;4.78;;;4.28;;
4248;SDS011;8404;48.752;12.922;2022-10-16T05:46:40;5.47;;;3.92;;
4248;SDS011;8404;48.752;12.922;2022-10-16T05:49:08;5.28;;;3.97;;
4248;SDS011;8404;48.752;12.922;2022-10-16T05:51:38;5.35;;;4.40;;
4248;SDS011;8404;48.752;12.922;2022-10-16T05:54:08;5.10;;;4.30;;
4248;SDS011;8404;48.752;12.922;2022-10-16T05:56:36;5.20;;;4.10;;
4248;SDS011;8404;48.752;12.922;2022-10-16T05:59:05;5.13;;;4.28;;
4248;SDS011;8404;48.752;12.922;2022-10-16T06:01:33;6.30;;;4.95;;
4248;SDS011;8404;48.752;12.922;2022-10-16T06:04:01;7.72;;;5.18;;
4248;SDS011;8404;48.752;12.922;2022-10-16T06:06:30;7.50;;;5.53;;
4248;SDS011;8404;48.752;12.922;2022-10-16T06:08:59;8.10;;;4.65;;
4248;SDS011;8404;48.752;12.922;2022-10-16T06:11:28;6.75;;;5.53;;
4248;SDS011;8404;48.752;12.922;2022-10-16T06:13:58;5.35;;;4.85;;
4248;SDS011;8404;48.752;12.922;2022-10-16T06:16:29;6.78;;;5.15;;
4248;SDS011;8404;48.752;12.922;2022-10-16T06:18:57;7.15;;;5.22;;
4248;SDS011;8404;48.752;12.922;2022-10-16T06:21:27;7.57;;;5.40;;
4248;SDS011;8404;48.752;12.922;2022-10-16T06:23:56;6.30;;;5.03;;
4248;SDS011;8404;48.752;12.922;2022-10-16T06:26:28;6.78;;;5.32;;
4248;SDS011;8404;48.752;12.922;2022-10-16T06:28:58;9.07;;;5.25;;
4248;SDS011;8404;48.752;12.922;2022-10-16T06:31:27;6.78;;;5.50;;
4248;SDS011;8404;48.752;12.922;2022-10-16T06:33:57;6.80;;;4.40;;
4248;SDS011;8404;48.752;12.922;2022-10-16T06:36:26;5.75;;;3.90;;
4248;SDS011;8404;48.752;12.922;2022-10-16T06:38:54;4.63;;;3.80;;
4248;SDS011;8404;48.752;12.922;2022-10-16T06:41:22;5.05;;;3.88;;
4248;SDS011;8404;48.752;12.922;2022-10-16T06:43:52;5.63;;;3.75;;
4248;SDS011;8404;48.752;12.922;2022-10-16T06:46:21;4.13;;;3.42;;
4248;SDS011;8404;48.752;12.922;2022-10-16T06:48:51;5.38;;;3.70;;
4248;SDS011;8404;48.752;12.922;2022-10-16T06:51:20;5.20;;;4.05;;
4248;SDS011;8404;48.752;12.922;2022-10-16T06:53:52;4.72;;;3.45;;
4248;SDS011;8404;48.752;12.922;2022-10-16T06:56:31;6.55;;;4.38;;
4248;SDS011;8404;48.752;12.922;2022-10-16T06:59:01;5.53;;;4.28;;
4248;SDS011;8404;48.752;12.922;2022-10-16T07:01:30;5.63;;;4.38;;
4248;SDS011;8404;48.752;12.922;2022-10-16T07:03:59;5.60;;;3.97;;
4248;SDS011;8404;48.752;12.922;2022-10-16T07:06:30;4.68;;;3.95;;
4248;SDS011;8404;48.752;12.922;2022-10-16T07:09:00;6.53;;;4.75;;
4248;SDS011;8404;48.752;12.922;2022-10-16T07:11:31;6.10;;;4.13;;
4248;SDS011;8404;48.752;12.922;2022-10-16T07:14:01;5.95;;;3.80;;
4248;SDS011;8404;48.752;12.922;2022-10-16T07:16:32;7.18;;;4.20;;
4248;SDS011;8404;48.752;12.922;2022-10-16T07:19:00;5.93;;;4.55;;
4248;SDS011;8404;48.752;12.922;2022-10-16T07:21:30;5.25;;;4.50;;
4248;SDS011;8404;48.752;12.922;2022-10-16T07:24:03;5.43;;;4.30;;
4248;SDS011;8404;48.752;12.922;2022-10-16T07:26:33;5.78;;;4.18;;
4248;SDS011;8404;48.752;12.922;2022-10-16T07:29:04;5.68;;;4.45;;
4248;SDS011;8404;48.752;12.922;2022-10-16T07:31:33;6.63;;;4.38;;
4248;SDS011;8404;48.752;12.922;2022-10-16T07:34:01;6.72;;;4.22;;
4248;SDS011;8404;48.752;12.922;2022-10-16T07:36:30;6.13;;;4.18;;
4248;SDS011;8404;48.752;12.922;2022-10-16T07:38:58;6.20;;;4.72;;
4248;SDS011;8404;48.752;12.922;2022-10-16T07:41:26;7.18;;;5.05;;
4248;SDS011;8404;48.752;12.922;2022-10-16T07:43:55;5.82;;;4.40;;
4248;SDS011;8404;48.752;12.922;2022-10-16T07:46:28;4.57;;;3.92;;
4248;SDS011;8404;48.752;12.922;2022-10-16T07:48:57;5.65;;;4.40;;
4248;SDS011;8404;48.752;12.922;2022-10-16T07:51:25;7.68;;;4.47;;
4248;SDS011;8404;48.752;12.922;2022-10-16T07:53:54;5.13;;;3.90;;
4248;SDS011;8404;48.752;12.922;2022-10-16T07:56:22;7.15;;;4.45;;
4248;SDS011;8404;48.752;12.922;2022-10-16T07:58:51;5.40;;;4.00;;
4248;SDS011;8404;48.752;12.922;2022-10-16T08:01:19;5.53;;;3.95;;
4248;SDS011;8404;48.752;12.922;2022-10-16T08:03:49;6.00;;;4.22;;
4248;SDS011;8404;48.752;12.922;2022-10-16T08:06:19;5.45;;;4.25;;
4248;SDS011;8404;48.752;12.922;2022-10-16T08:08:53;4.88;;;3.92;;
4248;SDS011;8404;48.752;12.922;2022-10-16T08:11:22;5.20;;;4.05;;
4248;SDS011;8404;48.752;12.922;2022-10-16T08:13:50;6.50;;;4.32;;
4248;SDS011;8404;48.752;12.922;2022-10-16T08:16:18;5.38;;;3.60;;
4248;SDS011;8404;48.752;12.922;2022-10-16T08:18:46;4.75;;;3.60;;
4248;SDS011;8404;48.752;12.922;2022-10-16T08:21:19;4.85;;;3.50;;
4248;SDS011;8404;48.752;12.922;2022-10-16T08:23:49;5.28;;;3.38;;
4248;SDS011;8404;48.752;12.922;2022-10-16T08:26:23;5.78;;;4.13;;
4248;SDS011;8404;48.752;12.922;2022-10-16T08:28:52;5.15;;;3.47;;
4248;SDS011;8404;48.752;12.922;2022-10-16T08:31:21;4.88;;;3.65;;
4248;SDS011;8404;48.752;12.922;2022-10-16T08:33:51;6.35;;;4.63;;
4248;SDS011;8404;48.752;12.922;2022-10-16T08:36:19;5.25;;;3.47;;
4248;SDS011;8404;48.752;12.922;2022-10-16T08:38:47;5.32;;;3.90;;
4248;SDS011;8404;48.752;12.922;2022-10-16T08:41:21;5.78;;;3.63;;
4248;SDS011;8404;48.752;12.922;2022-10-16T08:44:02;5.15;;;3.53;;
4248;SDS011;8404;48.752;12.922;2022-10-16T08:46:51;6.43;;;3.92;;
4248;SDS011;8404;48.752;12.922;2022-10-16T08:49:25;4.88;;;3.45;;
4248;SDS011;8404;48.752;12.922;2022-10-16T08:51:54;5.78;;;3.35;;
4248;SDS011;8404;48.752;12.922;2022-10-16T08:54:26;5.45;;;3.88;;
4248;SDS011;8404;48.752;12.922;2022-10-16T08:56:57;5.75;;;3.50;;
4248;SDS011;8404;48.752;12.922;2022-10-16T08:59:35;4.18;;;2.88;;
4248;SDS011;8404;48.752;12.922;2022-10-16T09:02:03;4.38;;;3.42;;
4248;SDS011;8404;48.752;12.922;2022-10-16T09:04:57;4.35;;;2.90;;
4248;SDS011;8404;48.752;12.922;2022-10-16T09:07:46;4.45;;;3.40;;
4248;SDS011;8404;48.752;12.922;2022-10-16T09:10:29;5.07;;;2.60;;
4248;SDS011;8404;48.752;12.922;2022-10-16T09:13:09;4.47;;;3.70;;
4248;SDS011;8404;48.752;12.922;2022-10-16T09:15:45;4.50;;;3.17;;
4248;SDS011;8404;48.752;12.922;2022-10-16T09:18:21;5.35;;;4.00;;
4248;SDS011;8404;48.752;12.922;2022-10-16T09:21:01;4.95;;;3.28;;
4248;SDS011;8404;48.752;12.922;2022-10-16T09:23:35;4.65;;;3.10;;
4248;SDS011;8404;48.752;12.922;2022-10-16T09:26:04;5.18;;;3.35;;
4248;SDS011;8404;48.752;12.922;2022-10-16T09:28:37;3.88;;;2.80;;
4248;SDS011;8404;48.752;12.922;2022-10-16T09:31:05;4.50;;;3.50;;
4248;SDS011;8404;48.752;12.922;2022-10-16T09:33:39;3.95;;;3.30;;
4248;SDS011;8404;48.752;12.922;2022-10-16T09:36:10;4.28;;;2.75;;
4248;SDS011;8404;48.752;12.922;2022-10-16T09:38:40;4.03;;;2.90;;
4248;SDS011;8404;48.752;12.922;2022-10-16T09:41:13;3.20;;;2.63;;
4248;SDS011;8404;48.752;12.922;2022-10-16T09:43:48;4.35;;;2.90;;
4248;SDS011;8404;48.752;12.922;2022-10-16T09:46:21;6.20;;;3.58;;
4248;SDS011;8404;48.752;12.922;2022-10-16T09:48:54;3.90;;;2.78;;
4248;SDS011;8404;48.752;12.922;2022-10-16T09:51:25;3.78;;;3.05;;
4248;SDS011;8404;48.752;12.922;2022-10-16T09:53:57;3.30;;;2.67;;
4248;SDS011;8404;48.752;12.922;2022-10-16T09:56:28;5.15;;;3.45;;
4248;SDS011;8404;48.752;12.922;2022-10-16T09:58:57;6.00;;;4.47;;
4248;SDS011;8404;48.752;12.922;2022-10-16T10:01:29;5.38;;;3.60;;
4248;SDS011;8404;48.752;12.922;2022-10-16T10:03:59;4.50;;;3.42;;
4248;SDS011;8404;48.752;12.922;2022-10-16T10:06:32;6.22;;;3.83;;
4248;SDS011;8404;48.752;12.922;2022-10-16T10:09:05;5.60;;;3.40;;
4248;SDS011;8404;48.752;12.922;2022-10-16T10:11:43;6.13;;;3.20;;
4248;SDS011;8404;48.752;12.922;2022-10-16T10:14:17;6.80;;;4.07;;
4248;SDS011;8404;48.752;12.922;2022-10-16T10:16:51;10.70;;;4.07;;
4248;SDS011;8404;48.752;12.922;2022-10-16T10:19:20;4.65;;;3.17;;
4248;SDS011;8404;48.752;12.922;2022-10-16T10:21:57;5.07;;;2.97;;
4248;SDS011;8404;48.752;12.922;2022-10-16T10:24:26;4.82;;;3.10;;
4248;SDS011;8404;48.752;12.922;2022-10-16T10:26:55;4.80;;;3.40;;
4248;SDS011;8404;48.752;12.922;2022-10-16T10:29:33;4.13;;;2.60;;
4248;SDS011;8404;48.752;12.922;2022-10-16T10:32:14;6.93;;;3.70;;
4248;SDS011;8404;48.752;12.922;2022-10-16T10:34:57;5.78;;;3.25;;
4248;SDS011;8404;48.752;12.922;2022-10-16T10:37:45;5.40;;;2.85;;
4248;SDS011;8404;48.752;12.922;2022-10-16T10:40:24;4.75;;;2.83;;
4248;SDS011;8404;48.752;12.922;2022-10-16T10:43:04;4.55;;;2.55;;
4248;SDS011;8404;48.752;12.922;2022-10-16T10:45:41;3.53;;;2.40;;
4248;SDS011;8404;48.752;12.922;2022-10-16T10:51:10;3.30;;;2.25;;
4248;SDS011;8404;48.752;12.922;2022-10-16T10:53:50;4.32;;;2.40;;
4248;SDS011;8404;48.752;12.922;2022-10-16T10:56:26;4.88;;;2.95;;
4248;SDS011;8404;48.752;12.922;2022-10-16T10:59:09;4.43;;;2.70;;
4248;SDS011;8404;48.752;12.922;2022-10-16T11:01:50;3.95;;;2.80;;
4248;SDS011;8404;48.752;12.922;2022-10-16T11:04:27;4.47;;;3.00;;
4248;SDS011;8404;48.752;12.922;2022-10-16T11:07:14;5.00;;;2.80;;
4248;SDS011;8404;48.752;12.922;2022-10-16T11:09:47;4.45;;;3.13;;
4248;SDS011;8404;48.752;12.922;2022-10-16T11:12:20;4.82;;;2.90;;
4248;SDS011;8404;48.752;12.922;2022-10-16T11:14:52;4.07;;;2.38;;
4248;SDS011;8404;48.752;12.922;2022-10-16T11:17:25;4.93;;;3.13;;
4248;SDS011;8404;48.752;12.922;2022-10-16T11:19:58;4.90;;;2.70;;
4248;SDS011;8404;48.752;12.922;2022-10-16T11:22:33;4.38;;;2.33;;
4248;SDS011;8404;48.752;12.922;2022-10-16T11:25:07;4.15;;;2.92;;
4248;SDS011;8404;48.752;12.922;2022-10-16T11:27:43;4.00;;;3.20;;
4248;SDS011;8404;48.752;12.922;2022-10-16T11:30:18;3.75;;;2.72;;
4248;SDS011;8404;48.752;12.922;2022-10-16T11:32:54;4.47;;;2.92;;
4248;SDS011;8404;48.752;12.922;2022-10-16T11:35:37;4.85;;;2.88;;
4248;SDS011;8404;48.752;12.922;2022-10-16T11:38:14;5.68;;;3.30;;
4248;SDS011;8404;48.752;12.922;2022-10-16T11:40:49;4.18;;;2.75;;
4248;SDS011;8404;48.752;12.922;2022-10-16T11:43:21;4.57;;;3.05;;
4248;SDS011;8404;48.752;12.922;2022-10-16T11:45:57;4.35;;;2.70;;
4248;SDS011;8404;48.752;12.922;2022-10-16T11:48:36;5.43;;;2.95;;
4248;SDS011;8404;48.752;12.922;2022-10-16T11:51:11;5.50;;;3.38;;
4248;SDS011;8404;48.752;12.922;2022-10-16T11:53:48;6.50;;;3.53;;
4248;SDS011;8404;48.752;12.922;2022-10-16T11:56:24;4.80;;;2.90;;
4248;SDS011;8404;48.752;12.922;2022-10-16T11:58:55;5.53;;;3.17;;
4248;SDS011;8404;48.752;12.922;2022-10-16T12:01:28;3.30;;;2.85;;
4248;SDS011;8404;48.752;12.922;2022-10-16T12:04:06;5.55;;;3.22;;
4248;SDS011;8404;48.752;12.922;2022-10-16T12:06:44;4.05;;;2.95;;
4248;SDS011;8404;48.752;12.922;2022-10-16T12:09:20;6.10;;;3.55;;
4248;SDS011;8404;48.752;12.922;2022-10-16T12:11:51;4.25;;;2.97;;
4248;SDS011;8404;48.752;12.922;2022-10-16T12:17:25;3.90;;;2.92;;
4248;SDS011;8404;48.752;12.922;2022-10-16T12:20:12;5.05;;;3.17;;
4248;SDS011;8404;48.752;12.922;2022-10-16T12:22:48;4.55;;;3.00;;
4248;SDS011;8404;48.752;12.922;2022-10-16T12:25:21;4.00;;;2.85;;
4248;SDS011;8404;48.752;12.922;2022-10-16T12:27:56;4.10;;;3.10;;
4248;SDS011;8404;48.752;12.922;2022-10-16T12:30:27;3.80;;;2.70;;
4248;SDS011;8404;48.752;12.922;2022-10-16T12:33:01;5.47;;;3.53;;
4248;SDS011;8404;48.752;12.922;2022-10-16T12:35:33;4.50;;;2.90;;
4248;SDS011;8404;48.752;12.922;2022-10-16T12:38:15;3.78;;;2.70;;
4248;SDS011;8404;48.752;12.922;2022-10-16T12:40:45;4.32;;;2.40;;
4248;SDS011;8404;48.752;12.922;2022-10-16T12:43:37;5.57;;;2.88;;
4248;SDS011;8404;48.752;12.922;2022-10-16T12:46:22;5.32;;;2.85;;
4248;SDS011;8404;48.752;12.922;2022-10-16T12:51:57;3.90;;;2.60;;
4248;SDS011;8404;48.752;12.922;2022-10-16T12:54:27;6.38;;;2.70;;
4248;SDS011;8404;48.752;12.922;2022-10-16T12:57:00;4.65;;;2.53;;
4248;SDS011;8404;48.752;12.922;2022-10-16T12:59:50;3.70;;;2.00;;
4248;SDS011;8404;48.752;12.922;2022-10-16T13:02:33;4.43;;;2.63;;
4248;SDS011;8404;48.752;12.922;2022-10-16T13:05:24;4.38;;;2.20;;
4248;SDS011;8404;48.752;12.922;2022-10-16T13:08:05;3.08;;;2.20;;
4248;SDS011;8404;48.752;12.922;2022-10-16T13:10:48;5.35;;;2.75;;
4248;SDS011;8404;48.752;12.922;2022-10-16T13:13:38;3.30;;;2.28;;
4248;SDS011;8404;48.752;12.922;2022-10-16T13:16:19;3.85;;;2.10;;
4248;SDS011;8404;48.752;12.922;2022-10-16T13:18:56;4.85;;;2.88;;
4248;SDS011;8404;48.752;12.922;2022-10-16T13:21:37;4.82;;;2.42;;
4248;SDS011;8404;48.752;12.922;2022-10-16T13:24:16;3.25;;;2.20;;
4248;SDS011;8404;48.752;12.922;2022-10-16T13:26:54;2.67;;;1.95;;
4248;SDS011;8404;48.752;12.922;2022-10-16T13:29:29;3.50;;;2.23;;
4248;SDS011;8404;48.752;12.922;2022-10-16T13:31:59;3.83;;;2.22;;
4248;SDS011;8404;48.752;12.922;2022-10-16T13:34:41;3.22;;;2.15;;
4248;SDS011;8404;48.752;12.922;2022-10-16T13:37:16;3.58;;;2.00;;
4248;SDS011;8404;48.752;12.922;2022-10-16T13:39:46;3.28;;;1.95;;
4248;SDS011;8404;48.752;12.922;2022-10-16T13:42:15;3.53;;;2.22;;
4248;SDS011;8404;48.752;12.922;2022-10-16T13:44:54;3.40;;;2.20;;
4248;SDS011;8404;48.752;12.922;2022-10-16T13:47:25;3.97;;;2.03;;
4248;SDS011;8404;48.752;12.922;2022-10-16T13:50:03;3.42;;;2.40;;
4248;SDS011;8404;48.752;12.922;2022-10-16T13:52:33;3.63;;;2.20;;
4248;SDS011;8404;48.752;12.922;2022-10-16T13:55:01;3.70;;;2.40;;
4248;SDS011;8404;48.752;12.922;2022-10-16T13:57:30;3.60;;;2.40;;
4248;SDS011;8404;48.752;12.922;2022-10-16T13:59:58;2.70;;;2.10;;
4248;SDS011;8404;48.752;12.922;2022-10-16T14:02:29;3.95;;;2.40;;
4248;SDS011;8404;48.752;12.922;2022-10-16T14:05:01;3.67;;;2.40;;
4248;SDS011;8404;48.752;12.922;2022-10-16T14:07:31;4.22;;;2.58;;
4248;SDS011;8404;48.752;12.922;2022-10-16T14:10:01;3.67;;;2.35;;
4248;SDS011;8404;48.752;12.922;2022-10-16T14:12:31;3.65;;;2.50;;
4248;SDS011;8404;48.752;12.922;2022-10-16T14:15:00;4.63;;;2.58;;
4248;SDS011;8404;48.752;12.922;2022-10-16T14:17:30;4.43;;;2.70;;
4248;SDS011;8404;48.752;12.922;2022-10-16T14:20:03;3.20;;;2.28;;
4248;SDS011;8404;48.752;12.922;2022-10-16T14:22:33;4.38;;;2.53;;
4248;SDS011;8404;48.752;12.922;2022-10-16T14:25:15;3.40;;;2.33;;
4248;SDS011;8404;48.752;12.922;2022-10-16T14:28:02;4.35;;;2.58;;
4248;SDS011;8404;48.752;12.922;2022-10-16T14:30:32;3.30;;;2.08;;
4248;SDS011;8404;48.752;12.922;2022-10-16T14:33:03;3.67;;;2.60;;
4248;SDS011;8404;48.752;12.922;2022-10-16T14:35:33;6.25;;;2.95;;
4248;SDS011;8404;48.752;12.922;2022-10-16T14:38:03;5.28;;;2.88;;
4248;SDS011;8404;48.752;12.922;2022-10-16T14:40:33;3.35;;;2.22;;
4248;SDS011;8404;48.752;12.922;2022-10-16T14:43:04;3.80;;;2.53;;
4248;SDS011;8404;48.752;12.922;2022-10-16T14:45:33;3.55;;;2.83;;
4248;SDS011;8404;48.752;12.922;2022-10-16T14:48:12;4.30;;;2.78;;
4248;SDS011;8404;48.752;12.922;2022-10-16T14:50:45;3.65;;;2.50;;
4248;SDS011;8404;48.752;12.922;2022-10-16T14:53:14;4.22;;;2.45;;
4248;SDS011;8404;48.752;12.922;2022-10-16T14:55:43;3.85;;;2.63;;
4248;SDS011;8404;48.752;12.922;2022-10-16T14:58:13;3.90;;;2.55;;
4248;SDS011;8404;48.752;12.922;2022-10-16T15:00:43;3.85;;;2.45;;
4248;SDS011;8404;48.752;12.922;2022-10-16T15:03:13;3.42;;;2.55;;
4248;SDS011;8404;48.752;12.922;2022-10-16T15:05:41;3.65;;;2.10;;
4248;SDS011;8404;48.752;12.922;2022-10-16T15:08:09;3.95;;;2.50;;
4248;SDS011;8404;48.752;12.922;2022-10-16T15:10:43;4.35;;;2.60;;
4248;SDS011;8404;48.752;12.922;2022-10-16T15:13:12;3.10;;;2.35;;
4248;SDS011;8404;48.752;12.922;2022-10-16T15:15:41;3.35;;;2.10;;
4248;SDS011;8404;48.752;12.922;2022-10-16T15:18:10;5.40;;;2.97;;
4248;SDS011;8404;48.752;12.922;2022-10-16T15:20:42;2.85;;;2.28;;
4248;SDS011;8404;48.752;12.922;2022-10-16T15:23:12;4.80;;;2.15;;
4248;SDS011;8404;48.752;12.922;2022-10-16T15:25:42;4.07;;;2.33;;
4248;SDS011;8404;48.752;12.922;2022-10-16T15:28:13;3.50;;;2.35;;
4248;SDS011;8404;48.752;12.922;2022-10-16T15:30:42;3.65;;;2.55;;
4248;SDS011;8404;48.752;12.922;2022-10-16T15:33:12;3.28;;;2.50;;
4248;SDS011;8404;48.752;12.922;2022-10-16T15:35:44;3.55;;;2.53;;
4248;SDS011;8404;48.752;12.922;2022-10-16T15:38:14;4.30;;;2.42;;
4248;SDS011;8404;48.752;12.922;2022-10-16T15:40:43;3.88;;;2.50;;
4248;SDS011;8404;48.752;12.922;2022-10-16T15:43:11;4.20;;;2.65;;